Time;durP1;ratioP1;P1;durP2;ratioP2;P2;SDS_P1;SDS_P2;PMS_P1;PMS_P2;Temp;Humidity;BMP_temperature;BMP_pressure;BME280_temperature;BME280_humidity;BME280_pressure;Samples;Min_cycle;Max_cycle;Signal;HPM_P1;HPM_P2
2023/10/01 00:02:05;;;;;;;12.50;5.93;;;;;;;11.62;100.00;149036.56;4916539;29;20229;-56
2023/10/01 00:04:32;;;;;;;13.03;5.70;;;;;;;11.61;100.00;149034.06;4916678;28;20286;-57
2023/10/01 00:07:05;;;;;;;16.07;6.00;;;;;;;11.61;100.00;149035.34;4921083;29;20229;-57
2023/10/01 00:09:32;;;;;;;14.90;6.30;;;;;;;11.62;100.00;149037.81;4921514;28;20257;-57
2023/10/01 00:12:05;;;;;;;16.90;6.43;;;;;;;11.63;100.00;149040.31;4920119;28;20242;-55
2023/10/01 00:14:31;;;;;;;13.20;5.83;;;;;;;11.62;100.00;149036.56;4919483;28;20235;-57
2023/10/01 00:17:05;;;;;;;14.17;6.00;;;;;;;11.54;100.00;149016.63;4920686;28;20246;-57
2023/10/01 00:19:32;;;;;;;13.90;6.27;;;;;;;11.46;100.00;148999.16;4916879;28;20248;-57
2023/10/01 00:22:03;;;;;;;14.93;6.50;;;;;;;11.42;100.00;148989.19;4918990;28;20227;-58
2023/10/01 00:24:30;;;;;;;15.10;6.23;;;;;;;11.36;100.00;148975.50;4916210;28;20236;-56
2023/10/01 00:27:23;;;;;;;12.80;6.00;;;;;;;11.35;100.00;148973.03;4915147;29;20238;-57
2023/10/01 00:29:50;;;;;;;12.13;5.80;;;;;;;11.38;100.00;148979.22;4919533;29;20768;-57
2023/10/01 00:32:18;;;;;;;13.80;6.13;;;;;;;11.35;100.00;148971.75;4930566;28;20239;-54
2023/10/01 00:34:44;;;;;;;15.50;6.33;;;;;;;11.34;100.00;148969.25;4918199;28;20252;-56
2023/10/01 00:37:11;;;;;;;14.40;5.90;;;;;;;11.27;100.00;148953.06;4915818;28;20230;-58
2023/10/01 00:39:38;;;;;;;13.13;5.83;;;;;;;11.23;100.00;148943.09;4923245;28;21165;-55
2023/10/01 00:42:06;;;;;;;12.87;6.00;;;;;;;11.27;100.00;148951.81;4920268;28;20228;-57
2023/10/01 00:44:34;;;;;;;15.07;6.33;;;;;;;11.23;100.00;148943.09;4917763;28;20335;-57
2023/10/01 00:47:05;;;;;;;13.77;5.80;;;;;;;11.23;100.00;148943.09;4930922;28;20232;-57
2023/10/01 00:49:40;;;;;;;14.00;5.97;;;;;;;11.22;100.00;148941.84;4923659;28;20641;-58
2023/10/01 00:52:10;;;;;;;13.23;6.37;;;;;;;11.14;100.00;148921.91;4933966;28;20239;-56
2023/10/01 00:54:37;;;;;;;13.63;6.37;;;;;;;11.18;100.00;148931.88;4917955;29;20235;-57
2023/10/01 00:57:04;;;;;;;13.30;6.33;;;;;;;11.18;100.00;148931.88;4916517;29;20721;-57
2023/10/01 00:59:33;;;;;;;14.27;6.03;;;;;;;11.19;100.00;148933.13;4915780;28;20239;-57
2023/10/01 01:02:07;;;;;;;11.57;5.63;;;;;;;11.17;100.00;148928.16;4932019;28;20287;-58
2023/10/01 01:04:42;;;;;;;15.87;6.47;;;;;;;11.12;100.00;148915.69;4917013;28;21882;-57
2023/10/01 01:07:14;;;;;;;14.57;6.53;;;;;;;11.03;100.00;148895.75;4918475;29;20675;-55
2023/10/01 01:09:41;;;;;;;14.50;6.40;;;;;;;10.95;100.00;148874.59;4916482;29;20257;-57
2023/10/01 01:12:08;;;;;;;16.33;6.20;;;;;;;10.99;100.00;148884.56;4931609;28;20241;-55
2023/10/01 01:14:35;;;;;;;12.27;5.83;;;;;;;10.97;100.00;148880.81;4914015;28;20236;-57
2023/10/01 01:17:04;;;;;;;11.77;5.20;;;;;;;10.99;100.00;148884.56;4914064;29;20228;-57
2023/10/01 01:19:33;;;;;;;13.70;6.33;;;;;;;10.97;100.00;148879.59;4925627;28;20306;-57
2023/10/01 01:22:09;;;;;;;12.63;6.10;;;;;;;10.93;100.00;148870.84;4916383;28;20471;-56
2023/10/01 01:24:37;;;;;;;14.10;5.60;;;;;;;10.89;100.00;148862.16;4930305;28;20237;-55
2023/10/01 01:27:06;;;;;;;15.57;5.90;;;;;;;10.90;100.00;148864.63;4916802;28;20230;-57
2023/10/01 01:29:40;;;;;;;12.70;5.47;;;;;;;10.89;100.00;148862.16;4928392;28;20755;-57
2023/10/01 01:32:14;;;;;;;16.53;5.77;;;;;;;10.88;100.00;148859.66;4931680;28;20278;-55
2023/10/01 01:34:41;;;;;;;13.50;5.70;;;;;;;10.86;100.00;148853.41;4914997;28;20295;-57
2023/10/01 01:37:09;;;;;;;14.07;6.20;;;;;;;10.84;100.00;148849.69;4917234;28;20232;-56
2023/10/01 01:39:48;;;;;;;19.27;5.77;;;;;;;10.85;100.00;148852.19;4913802;29;20679;-57
2023/10/01 01:42:19;;;;;;;15.93;6.43;;;;;;;10.81;100.00;148840.94;4913816;28;20250;-57
2023/10/01 01:44:47;;;;;;;13.30;6.20;;;;;;;10.74;100.00;148826.00;4919377;29;20318;-54
2023/10/01 01:47:15;;;;;;;18.20;5.77;;;;;;;10.80;100.00;148839.72;4918198;28;20239;-57
2023/10/01 01:49:43;;;;;;;15.00;5.73;;;;;;;10.76;100.00;148829.75;4917268;28;20234;-54
2023/10/01 01:52:10;;;;;;;15.07;6.13;;;;;;;10.71;100.00;148818.53;4918799;29;20227;-58
2023/10/01 01:54:40;;;;;;;16.40;5.93;;;;;;;10.69;100.00;148813.53;4924935;28;20234;-57
2023/10/01 01:57:13;;;;;;;14.37;5.93;;;;;;;10.70;100.00;148814.81;4920878;29;20240;-58
2023/10/01 01:59:41;;;;;;;13.27;5.97;;;;;;;10.65;100.00;148802.34;4930520;28;20255;-58
2023/10/01 02:02:09;;;;;;;12.43;6.10;;;;;;;10.62;100.00;148796.09;4919377;29;20247;-57
2023/10/01 02:04:58;;;;;;;10.63;5.50;;;;;;;10.61;100.00;148793.59;4922984;28;20235;-58
2023/10/01 02:07:28;;;;;;;14.80;5.87;;;;;;;10.62;100.00;148796.09;4934253;28;20232;-58
2023/10/01 02:09:58;;;;;;;11.70;5.47;;;;;;;10.57;100.00;148783.69;4917891;29;20240;-58
2023/10/01 02:12:29;;;;;;;15.60;6.07;;;;;;;10.50;100.00;148767.47;4915785;28;20256;-57
2023/10/01 02:14:56;;;;;;;12.40;5.43;;;;;;;10.46;100.00;148758.78;4919046;29;20227;-56
2023/10/01 02:17:25;;;;;;;11.93;6.03;;;;;;;10.42;100.00;148747.53;4916623;28;20233;-58
2023/10/01 02:19:55;;;;;;;14.73;6.30;;;;;;;10.41;100.00;148745.06;4916858;29;20242;-57
2023/10/01 02:22:24;;;;;;;14.10;5.30;;;;;;;10.42;100.00;148748.81;4931537;28;20236;-57
2023/10/01 02:24:58;;;;;;;13.00;6.37;;;;;;;10.36;100.00;148733.81;4918393;28;20686;-57
2023/10/01 02:27:28;;;;;;;13.83;6.43;;;;;;;10.32;100.00;148725.09;4915106;28;20396;-57
2023/10/01 02:30:14;;;;;;;16.73;5.83;;;;;;;10.40;100.00;148743.84;4915144;28;20227;-57
2023/10/01 02:32:49;;;;;;;12.17;5.90;;;;;;;10.39;100.00;148741.34;4914323;29;20227;-57
2023/10/01 02:35:36;;;;;;;15.60;6.17;;;;;;;10.36;100.00;148733.81;4912131;28;20233;-57
2023/10/01 02:38:36;;;;;;;;;;;;;;;;;;;;;
2023/10/01 02:40:50;;;;;;;16.83;6.23;;;;;;;10.26;100.00;148710.13;4929800;28;20339;-57
2023/10/01 02:43:18;;;;;;;12.37;5.83;;;;;;;10.26;100.00;148708.91;4926762;28;20355;-57
2023/10/01 02:45:44;;;;;;;14.63;5.73;;;;;;;10.23;100.00;148702.66;4935928;28;20219;-55
2023/10/01 02:48:17;;;;;;;14.33;5.67;;;;;;;10.29;100.00;148717.59;4928758;29;20246;-58
2023/10/01 02:50:45;;;;;;;14.53;6.30;;;;;;;10.22;100.00;148700.19;4916893;28;20229;-57
2023/10/01 02:53:13;;;;;;;13.70;6.07;;;;;;;10.19;100.00;148692.69;4916878;28;20659;-57
2023/10/01 02:55:44;;;;;;;13.67;6.23;;;;;;;10.22;100.00;148700.19;4917116;28;20230;-57
2023/10/01 02:58:19;;;;;;;13.43;6.23;;;;;;;10.23;100.00;148702.66;4918289;28;20306;-56
2023/10/01 03:00:50;;;;;;;15.87;5.87;;;;;;;10.20;100.00;148695.19;4914297;29;20237;-57
2023/10/01 03:03:18;;;;;;;14.23;5.70;;;;;;;10.17;100.00;148687.72;4916930;28;20316;-58
2023/10/01 03:05:46;;;;;;;14.17;5.97;;;;;;;10.15;100.00;148682.75;4922025;28;20638;-58
2023/10/01 03:08:40;;;;;;;18.20;5.87;;;;;;;10.16;100.00;148686.50;4922080;28;20242;-57
2023/10/01 03:11:11;;;;;;;13.10;5.87;;;;;;;10.29;100.00;148716.38;4916314;28;20234;-58
2023/10/01 03:13:40;;;;;;;12.43;6.20;;;;;;;10.18;100.00;148690.22;4921743;29;20267;-57
2023/10/01 03:18:55;;;;;;;13.57;6.07;;;;;;;10.12;100.00;148676.53;4933908;28;20247;-57
2023/10/01 03:24:03;;;;;;;15.73;6.10;;;;;;;10.15;100.00;148682.75;4919614;28;20238;-57
2023/10/01 03:26:33;;;;;;;13.03;6.00;;;;;;;10.15;100.00;148682.75;4914996;28;20555;-57
2023/10/01 03:29:21;;;;;;;14.07;5.70;;;;;;;10.07;100.00;148664.09;4922850;28;20373;-58
2023/10/01 03:31:53;;;;;;;12.53;5.97;;;;;;;10.12;100.00;148676.53;5144884;23;20233;-57
2023/10/01 03:34:29;;;;;;;13.43;6.10;;;;;;;10.14;100.00;148681.53;4926139;28;20236;-57
2023/10/01 03:36:58;;;;;;;13.33;5.60;;;;;;;10.06;100.00;148661.59;4930293;28;20270;-57
2023/10/01 03:39:26;;;;;;;12.53;6.00;;;;;;;10.01;100.00;148650.41;4927276;28;20321;-57
2023/10/01 03:41:54;;;;;;;11.73;5.70;;;;;;;10.06;100.00;148661.59;4929794;28;20225;-55
2023/10/01 03:45:18;;;;;;;14.97;6.27;;;;;;;10.09;100.00;148667.81;4927223;28;20227;-57
2023/10/01 03:47:08;;;;;;;16.37;6.17;;;;;;;10.16;100.00;148686.50;4928904;28;20750;-56
2023/10/01 03:49:38;;;;;;;12.40;5.57;;;;;;;10.14;100.00;148680.25;4927438;28;20243;-57
2023/10/01 03:52:09;;;;;;;12.73;5.93;;;;;;;10.08;100.00;148666.59;4929424;28;20262;-58
2023/10/01 03:57:17;;;;;;;13.13;6.03;;;;;;;10.00;100.00;148646.66;4926383;28;20237;-57
2023/10/01 03:59:51;;;;;;;14.37;6.17;;;;;;;10.01;100.00;148649.16;4930383;28;20227;-56
2023/10/01 04:02:28;;;;;;;13.80;6.00;;;;;;;9.96;100.00;148637.97;4927551;28;20222;-57
2023/10/01 04:04:57;;;;;;;14.83;6.13;;;;;;;9.90;100.00;148624.25;4928768;28;20258;-56
2023/10/01 04:07:26;;;;;;;14.50;6.27;;;;;;;9.93;100.00;148630.50;4925982;28;20227;-58
2023/10/01 04:09:53;;;;;;;14.20;6.00;;;;;;;9.88;100.00;148619.25;4928930;28;20902;-57
2023/10/01 04:12:26;;;;;;;14.37;5.60;;;;;;;9.86;100.00;148613.06;4926879;28;20231;-58
2023/10/01 04:14:53;;;;;;;16.07;6.13;;;;;;;9.82;100.00;148603.09;4929475;28;21173;-55
2023/10/01 04:17:25;;;;;;;15.20;6.43;;;;;;;9.78;100.00;148594.38;4926307;28;20231;-57
2023/10/01 04:19:57;;;;;;;12.30;5.73;;;;;;;9.79;100.00;148595.63;4929501;28;20317;-54
2023/10/01 04:22:25;;;;;;;16.13;6.13;;;;;;;9.75;100.00;148588.16;4926789;28;20239;-57
2023/10/01 04:25:09;;;;;;;10.97;5.70;;;;;;;9.74;100.00;148584.41;4928996;28;20724;-56
2023/10/01 04:27:36;;;;;;;14.00;6.13;;;;;;;9.72;100.00;148579.44;4926489;28;20230;-57
2023/10/01 04:30:08;;;;;;;14.77;6.70;;;;;;;9.70;100.00;148574.44;4929339;28;20231;-56
2023/10/01 04:32:37;;;;;;;14.37;6.40;;;;;;;9.74;100.00;148584.41;4926557;28;20241;-56
2023/10/01 04:35:14;;;;;;;11.97;5.67;;;;;;;9.71;100.00;148578.22;4928149;28;20269;-57
2023/10/01 04:37:41;;;;;;;11.97;5.50;;;;;;;9.69;100.00;148573.22;4927056;28;20283;-55
2023/10/01 04:42:50;;;;;;;13.33;6.20;;;;;;;9.67;100.00;148568.25;4926177;28;20695;-57
2023/10/01 04:45:23;;;;;;;14.17;6.80;;;;;;;9.69;100.00;148573.22;4927079;29;20261;-56
2023/10/01 04:47:55;;;;;;;13.37;5.83;;;;;;;9.70;100.00;148574.44;4929022;28;20270;-57
2023/10/01 04:50:27;;;;;;;15.23;6.23;;;;;;;9.67;100.00;148568.25;4926072;28;20298;-56
2023/10/01 04:52:58;;;;;;;14.93;6.03;;;;;;;9.69;100.00;148573.22;4929514;28;20733;-57
2023/10/01 04:55:25;;;;;;;14.40;6.47;;;;;;;9.63;100.00;148558.28;4926806;29;20738;-57
2023/10/01 04:57:52;;;;;;;15.70;6.43;;;;;;;9.62;100.00;148554.53;4928291;28;20305;-56
2023/10/01 05:00:22;;;;;;;13.27;6.07;;;;;;;9.59;100.00;148549.56;4925963;29;20238;-57
2023/10/01 05:02:49;;;;;;;14.40;6.13;;;;;;;9.56;100.00;148542.09;4943341;28;20234;-55
2023/10/01 05:05:25;;;;;;;14.43;6.60;;;;;;;9.62;100.00;148554.53;4925677;29;20798;-58
2023/10/01 05:07:55;;;;;;;15.20;6.33;;;;;;;9.60;100.00;148550.81;4929253;28;20894;-56
2023/10/01 05:10:22;;;;;;;12.87;6.33;;;;;;;9.58;100.00;148545.84;4925827;29;20240;-57
2023/10/01 05:12:54;;;;;;;12.77;6.00;;;;;;;9.55;100.00;148539.59;4927444;29;20591;-58
2023/10/01 05:15:25;;;;;;;14.77;6.30;;;;;;;9.62;100.00;148554.53;4925853;29;20642;-57
2023/10/01 05:17:52;;;;;;;17.00;6.20;;;;;;;9.62;100.00;148554.53;4928168;28;20227;-57
2023/10/01 05:20:20;;;;;;;15.30;6.50;;;;;;;9.62;100.00;148554.53;4925334;28;20231;-55
2023/10/01 05:22:50;;;;;;;14.97;5.87;;;;;;;9.62;100.00;148555.81;4928381;28;20694;-57
2023/10/01 05:25:18;;;;;;;13.23;5.93;;;;;;;9.60;100.00;148552.03;4924822;28;20725;-57
2023/10/01 05:27:45;;;;;;;16.73;7.17;;;;;;;9.59;100.00;148549.56;4927341;28;20232;-57
2023/10/01 05:32:53;;;;;;;16.43;7.27;;;;;;;9.67;100.00;148566.97;4925714;28;20227;-57
2023/10/01 05:35:23;;;;;;;14.87;6.23;;;;;;;9.68;100.00;148569.47;4925771;28;20230;-57
2023/10/01 05:37:50;;;;;;;20.77;6.90;;;;;;;9.73;100.00;148581.91;4928049;28;20230;-57
2023/10/01 05:40:16;;;;;;;16.43;6.43;;;;;;;9.79;100.00;148596.84;4925509;29;20230;-57
2023/10/01 05:42:47;;;;;;;15.53;6.03;;;;;;;9.77;100.00;148591.88;4928179;28;20234;-55
2023/10/01 05:45:18;;;;;;;14.23;6.17;;;;;;;9.76;100.00;148589.38;4927692;29;20270;-56
2023/10/01 05:47:51;;;;;;;17.20;6.47;;;;;;;9.77;100.00;148591.88;4926789;28;20229;-57
2023/10/01 05:50:18;;;;;;;14.33;6.90;;;;;;;9.81;100.00;148600.63;4924964;28;20227;-57
2023/10/01 05:52:46;;;;;;;13.43;6.40;;;;;;;9.84;100.00;148608.09;4943305;28;20254;-57
2023/10/01 05:55:15;;;;;;;13.83;5.83;;;;;;;9.84;100.00;148609.31;4928005;29;20294;-57
2023/10/01 05:57:42;;;;;;;14.40;6.90;;;;;;;9.89;100.00;148621.75;4927582;28;20233;-57
2023/10/01 06:00:17;;;;;;;14.77;6.20;;;;;;;9.93;100.00;148630.50;4927626;29;20231;-58
2023/10/01 06:02:47;;;;;;;13.50;6.30;;;;;;;9.97;100.00;148639.19;4925392;28;20313;-57
2023/10/01 06:07:56;;;;;;;20.47;7.07;;;;;;;10.08;100.00;148665.31;4922640;28;20326;-57
2023/10/01 06:10:26;;;;;;;14.57;6.60;;;;;;;10.12;100.00;148675.28;4925368;28;21022;-57
2023/10/01 06:12:56;;;;;;;15.40;5.60;;;;;;;10.15;100.00;148682.75;4927699;28;20690;-58
2023/10/01 06:15:29;;;;;;;15.77;6.10;;;;;;;10.18;100.00;148691.47;4923951;28;20319;-56
2023/10/01 06:18:00;;;;;;;15.50;6.13;;;;;;;10.24;100.00;148703.94;4927832;28;20298;-57
2023/10/01 06:20:27;;;;;;;16.63;6.47;;;;;;;10.27;100.00;148711.41;4925264;28;20234;-57
2023/10/01 06:22:59;;;;;;;14.77;6.50;;;;;;;10.31;100.00;148721.38;4927596;28;20242;-57
2023/10/01 06:25:40;;;;;;;15.43;6.07;;;;;;;10.38;100.00;148737.53;4927175;29;20255;-57
2023/10/01 06:28:09;;;;;;;16.13;6.70;;;;;;;10.39;100.00;148741.34;4927604;28;20353;-57
2023/10/01 06:30:39;;;;;;;17.33;6.73;;;;;;;10.46;100.00;148757.50;4925579;29;20250;-56
2023/10/01 06:33:08;;;;;;;15.10;5.87;;;;;;;10.50;100.00;148767.47;4929922;28;20301;-57
2023/10/01 06:35:37;;;;;;;15.53;6.23;;;;;;;10.54;100.00;148777.44;4928650;28;21312;-58
2023/10/01 06:38:05;;;;;;;17.40;6.43;;;;;;;10.59;100.00;148788.69;4930784;28;20238;-55
2023/10/01 06:40:32;;;;;;;15.10;6.10;;;;;;;10.66;100.00;148804.84;4928277;28;20262;-57
2023/10/01 06:42:59;;;;;;;15.73;6.80;;;;;;;10.69;100.00;148812.31;4936460;28;20594;-58
2023/10/01 06:45:39;;;;;;;15.17;6.80;;;;;;;10.72;100.00;148821.00;4929548;28;20572;-57
2023/10/01 06:48:09;;;;;;;14.77;6.40;;;;;;;10.77;100.00;148833.47;4931929;28;20223;-57
2023/10/01 06:50:37;;;;;;;14.83;6.30;;;;;;;10.83;100.00;148845.94;4931741;28;20644;-58
2023/10/01 06:53:05;;;;;;;12.50;5.87;;;;;;;10.87;100.00;148855.88;4931291;28;20236;-58
2023/10/01 06:55:36;;;;;;;16.30;6.13;;;;;;;10.92;100.00;148868.34;4928307;29;20231;-58
2023/10/01 06:58:06;;;;;;;15.10;6.10;;;;;;;10.99;100.00;148885.78;4931063;28;20301;-54
2023/10/01 07:00:34;;;;;;;16.43;6.67;;;;;;;11.04;100.00;148898.25;4928008;28;20733;-56
2023/10/01 07:03:17;;;;;;;18.50;6.83;;;;;;;11.10;100.00;148911.97;4931901;28;20266;-55
2023/10/01 07:05:46;;;;;;;16.93;6.90;;;;;;;11.14;100.00;148921.91;4928839;29;20691;-56
2023/10/01 07:08:18;;;;;;;14.20;6.30;;;;;;;11.23;100.00;148943.09;4931309;29;20645;-57
2023/10/01 07:10:46;;;;;;;16.53;6.07;;;;;;;11.29;100.00;148958.06;4928212;28;20234;-57
2023/10/01 07:13:15;;;;;;;16.60;6.87;;;;;;;11.30;100.00;148960.56;4933610;29;20243;-57
2023/10/01 07:15:43;;;;;;;18.30;6.83;;;;;;;11.37;100.00;148978.00;4931273;28;20226;-56
2023/10/01 07:18:19;;;;;;;13.10;6.27;;;;;;;11.45;100.00;148996.66;4930343;28;20223;-57
2023/10/01 07:20:49;;;;;;;12.20;6.17;;;;;;;11.51;100.00;149010.41;4929368;28;20769;-58
2023/10/01 07:23:21;;;;;;;15.50;6.70;;;;;;;11.61;100.00;149034.06;4927405;28;20236;-57
2023/10/01 07:25:49;;;;;;;14.10;6.10;;;;;;;11.72;100.00;149060.22;4931247;28;20714;-56
2023/10/01 07:28:18;;;;;;;16.23;6.30;;;;;;;11.79;100.00;149078.94;4927427;28;20586;-56
2023/10/01 07:30:51;;;;;;;14.20;6.67;;;;;;;11.86;100.00;149093.91;4930248;28;20243;-55
2023/10/01 07:33:20;;;;;;;13.60;5.87;;;;;;;11.94;100.00;149115.06;4927933;29;20245;-57
2023/10/01 07:35:58;;;;;;;16.27;7.07;;;;;;;12.05;100.00;149140.03;4930917;28;20266;-58
2023/10/01 07:38:28;;;;;;;15.20;7.00;;;;;;;12.20;100.00;149176.19;4926656;28;20230;-56
2023/10/01 07:40:58;;;;;;;14.60;6.50;;;;;;;12.31;100.00;149203.63;4931253;28;20349;-57
2023/10/01 07:43:26;;;;;;;15.60;6.40;;;;;;;12.38;100.00;149219.84;4927450;28;20226;-56
2023/10/01 07:46:02;;;;;;;11.93;6.07;;;;;;;12.50;100.00;149249.78;4930921;28;20232;-57
2023/10/01 07:48:31;;;;;;;14.57;6.20;;;;;;;12.62;100.00;149277.22;4927127;29;20235;-56
2023/10/01 07:51:02;;;;;;;17.10;6.57;;;;;;;12.78;100.00;149317.09;4930324;28;20223;-57
2023/10/01 07:53:33;;;;;;;14.60;6.20;;;;;;;12.96;100.00;149360.75;4927279;28;20227;-58
2023/10/01 07:56:01;;;;;;;12.87;6.90;;;;;;;13.13;100.00;149401.91;4930218;28;20267;-58
2023/10/01 07:58:45;;;;;;;13.37;6.43;;;;;;;13.29;100.00;149439.34;4927715;28;20235;-55
2023/10/01 08:03:56;;;;;;;20.23;6.83;;;;;;;13.54;100.00;149500.50;4927276;29;20228;-58
2023/10/01 08:06:29;;;;;;;16.67;6.97;;;;;;;13.69;100.00;149535.47;4927282;28;20956;-58
2023/10/01 08:08:59;;;;;;;13.77;6.63;;;;;;;13.83;100.00;149569.13;4929988;29;20234;-56
2023/10/01 08:11:58;;;;;;;15.47;7.17;;;;;;;13.93;100.00;149594.09;4926828;28;20316;-57
2023/10/01 08:14:26;;;;;;;13.50;6.47;;;;;;;14.11;100.00;149637.81;4927254;28;20227;-58
2023/10/01 08:16:53;;;;;;;15.87;6.57;;;;;;;14.23;100.00;149666.50;4928224;28;20232;-57
2023/10/01 08:19:20;;;;;;;15.43;6.47;;;;;;;14.38;100.00;149702.69;4927317;28;20697;-57
2023/10/01 08:21:50;;;;;;;13.37;6.43;;;;;;;14.48;100.00;149726.44;4929616;28;20240;-57
2023/10/01 08:24:18;;;;;;;16.60;6.90;;;;;;;14.55;100.00;149742.63;4926794;28;20728;-55
2023/10/01 08:26:50;;;;;;;15.17;7.00;;;;;;;14.59;100.00;149753.91;4928543;28;20637;-56
2023/10/01 08:29:16;;;;;;;13.10;5.90;;;;;;;14.73;100.00;149786.41;4926490;28;20231;-56
2023/10/01 08:32:08;;;;;;;13.60;6.73;;;;;;;14.82;100.00;149807.63;4929870;28;20252;-56
2023/10/01 08:34:50;;;;;;;16.70;7.57;;;;;;;14.85;100.00;149815.13;4926870;28;20319;-57
2023/10/01 08:37:22;;;;;;;14.37;6.50;;;;;;;14.99;100.00;149850.09;4926393;28;20720;-56
2023/10/01 08:39:53;;;;;;;19.40;7.47;;;;;;;15.12;100.00;149881.31;4928872;28;20316;-56
2023/10/01 08:42:22;;;;;;;14.20;6.90;;;;;;;15.20;100.00;149901.28;4926471;28;20245;-55
2023/10/01 08:44:49;;;;;;;12.27;6.10;;;;;;;15.29;100.00;149921.28;4929510;29;20229;-56
2023/10/01 08:47:27;;;;;;;12.63;6.93;;;;;;;15.36;100.00;149938.78;4926452;29;20225;-55
2023/10/01 08:49:56;;;;;;;15.90;6.60;;;;;;;15.40;100.00;149948.75;4928865;28;20289;-57
2023/10/01 08:52:27;;;;;;;14.33;6.50;;;;;;;15.53;100.00;149978.75;4925043;29;20233;-57
2023/10/01 08:54:59;;;;;;;19.60;7.00;;;;;;;15.71;99.07;150022.47;4928251;28;20324;-56
2023/10/01 08:57:37;;;;;;;14.47;6.47;;;;;;;15.75;96.54;150033.72;4938750;28;20251;-56
2023/10/01 09:00:16;;;;;;;14.43;7.00;;;;;;;15.84;96.76;150053.72;4928685;29;20242;-54
2023/10/01 09:02:43;;;;;;;14.83;6.87;;;;;;;15.91;95.90;150071.22;4926031;29;20343;-57
2023/10/01 09:05:11;;;;;;;12.00;5.67;;;;;;;16.06;96.30;150107.50;4928147;29;20716;-56
2023/10/01 09:07:47;;;;;;;13.37;6.47;;;;;;;16.13;94.90;150125.00;4925637;28;20714;-54
2023/10/01 09:10:17;;;;;;;17.97;7.70;;;;;;;16.03;94.23;150101.22;4927802;28;20695;-57
2023/10/01 09:12:46;;;;;;;12.47;6.33;;;;;;;16.22;93.64;150146.22;4926015;28;20247;-56
2023/10/01 09:15:23;;;;;;;15.20;7.03;;;;;;;16.27;91.69;150157.50;4927930;28;20234;-56
2023/10/01 09:17:57;;;;;;;14.63;7.20;;;;;;;16.30;90.65;150165.00;4925010;28;20238;-55
2023/10/01 09:20:42;;;;;;;15.03;6.77;;;;;;;16.32;91.03;150170.00;4924869;28;20225;-56
2023/10/01 09:23:09;;;;;;;13.20;6.70;;;;;;;16.32;90.87;150170.00;4928038;28;20230;-57
2023/10/01 09:25:41;;;;;;;15.07;6.70;;;;;;;16.37;91.59;150183.72;4925363;28;20254;-57
2023/10/01 09:28:29;;;;;;;16.43;6.97;;;;;;;16.44;88.21;150199.94;4926685;29;20230;-56
2023/10/01 09:31:02;;;;;;;14.67;7.23;;;;;;;16.53;88.91;150222.44;4925092;28;20251;-56
2023/10/01 09:33:29;;;;;;;16.43;6.97;;;;;;;16.69;88.47;150259.97;4923881;28;20226;-57
2023/10/01 09:35:59;;;;;;;13.60;6.87;;;;;;;16.72;88.07;150267.47;4926964;28;20238;-57
2023/10/01 09:38:28;;;;;;;12.70;7.43;;;;;;;16.84;87.29;150296.25;4925257;29;20324;-56
2023/10/01 09:40:57;;;;;;;13.43;7.23;;;;;;;16.92;88.14;150314.97;4927765;28;20305;-54
2023/10/01 09:43:29;;;;;;;14.87;7.20;;;;;;;17.04;86.80;150343.75;4924262;28;20246;-56
2023/10/01 09:45:59;;;;;;;16.03;7.43;;;;;;;17.02;87.65;150338.75;4927953;28;20241;-57
2023/10/01 09:48:30;;;;;;;15.70;7.40;;;;;;;17.07;87.94;150352.53;4924205;28;20251;-57
2023/10/01 09:51:08;;;;;;;14.93;7.30;;;;;;;17.13;86.86;150366.28;4914727;29;20235;-54
2023/10/01 09:53:52;;;;;;;15.77;7.60;;;;;;;17.22;87.25;150388.78;4923845;29;23284;-55
2023/10/01 09:56:29;;;;;;;17.27;6.70;;;;;;;17.26;88.74;150398.78;4921781;28;20230;-56
2023/10/01 09:59:01;;;;;;;16.63;7.87;;;;;;;17.39;87.37;150428.81;4927035;29;20246;-56
2023/10/01 10:01:28;;;;;;;14.80;6.50;;;;;;;17.55;85.35;150467.56;4924200;28;20783;-56
2023/10/01 10:04:01;;;;;;;16.60;7.53;;;;;;;17.57;86.11;150472.56;4926659;28;20237;-57
2023/10/01 10:06:29;;;;;;;15.03;7.00;;;;;;;17.64;84.53;150488.88;4925902;28;20231;-56
2023/10/01 10:09:06;;;;;;;12.40;6.63;;;;;;;17.75;85.37;150516.38;4933969;28;20258;-57
2023/10/01 10:11:40;;;;;;;13.83;7.50;;;;;;;17.84;84.42;150538.91;4931091;28;20240;-57
2023/10/01 10:14:44;;;;;;;18.30;7.27;;;;;;;17.91;84.14;150553.91;4933000;28;20677;-57
2023/10/01 10:17:18;;;;;;;14.03;7.03;;;;;;;18.03;84.23;150583.94;4932494;29;20242;-57
2023/10/01 10:20:00;;;;;;;13.90;6.40;;;;;;;18.20;83.79;150625.28;4932410;28;20690;-57
2023/10/01 10:22:32;;;;;;;16.23;6.77;;;;;;;18.25;83.49;150637.78;4930897;28;20238;-57
2023/10/01 10:25:22;;;;;;;14.23;7.43;;;;;;;18.36;81.81;150664.03;4934202;29;20302;-57
2023/10/01 10:27:50;;;;;;;17.67;7.10;;;;;;;18.19;82.80;150621.50;4932882;29;20763;-57
2023/10/01 10:30:18;;;;;;;12.57;6.53;;;;;;;18.41;81.56;150675.34;4931010;28;20239;-57
2023/10/01 10:33:42;;;;;;;15.17;5.77;;;;;;;18.47;81.66;150689.06;4933004;28;20231;-57
2023/10/01 10:36:51;;;;;;;14.00;6.33;;;;;;;18.55;81.48;150710.34;4929494;29;20258;-57
2023/10/01 10:40:23;;;;;;;14.03;7.00;;;;;;;18.79;79.62;150766.69;4928551;28;20241;-57
2023/10/01 10:43:19;;;;;;;12.40;6.43;;;;;;;18.92;80.84;150799.25;4932271;28;20314;-58
2023/10/01 10:45:59;;;;;;;15.33;6.73;;;;;;;18.94;79.15;150804.25;4931310;29;20703;-57
2023/10/01 10:48:59;;;;;;;17.53;6.67;;;;;;;19.00;77.82;150818.03;4930372;28;20227;-57
2023/10/01 10:51:48;;;;;;;13.13;7.03;;;;;;;19.00;76.61;150819.31;4931298;28;20239;-58
2023/10/01 10:54:28;;;;;;;13.73;6.73;;;;;;;19.06;75.95;150831.84;4933786;28;20246;-57
2023/10/01 10:56:54;;;;;;;12.53;6.30;;;;;;;19.09;76.40;150840.59;4931233;28;20232;-57
2023/10/01 10:59:25;;;;;;;14.80;6.60;;;;;;;19.22;75.66;150870.63;4935566;29;20232;-57
2023/10/01 11:01:56;;;;;;;13.73;6.27;;;;;;;19.30;74.32;150890.66;4933082;28;20229;-58
2023/10/01 11:04:30;;;;;;;18.30;6.90;;;;;;;19.21;74.77;150868.13;4930436;28;20330;-58
2023/10/01 11:07:35;;;;;;;11.57;5.53;;;;;;;19.36;74.23;150904.41;4930811;28;20275;-56
2023/10/01 11:10:04;;;;;;;12.93;6.40;;;;;;;19.49;72.61;150936.97;4934724;28;20592;-57
2023/10/01 11:12:34;;;;;;;15.10;6.17;;;;;;;19.51;71.38;150940.75;4931072;29;20236;-58
2023/10/01 11:17:42;;;;;;;16.00;6.30;;;;;;;19.55;71.04;150950.78;4930039;28;20232;-57
2023/10/01 11:20:22;;;;;;;14.40;6.50;;;;;;;19.65;71.52;150975.78;4928910;28;20241;-58
2023/10/01 11:22:54;;;;;;;13.73;6.40;;;;;;;19.62;71.45;150969.53;4929470;28;20241;-57
2023/10/01 11:25:21;;;;;;;13.67;7.07;;;;;;;19.79;70.27;151008.34;4927929;29;20237;-57
2023/10/01 11:27:53;;;;;;;15.63;6.80;;;;;;;19.58;70.38;150958.28;4929675;29;20273;-57
2023/10/01 11:30:24;;;;;;;13.77;6.73;;;;;;;19.80;70.92;151010.84;4931215;28;20574;-57
2023/10/01 11:33:13;;;;;;;12.07;6.30;;;;;;;19.84;72.36;151020.88;4929219;29;20690;-57
2023/10/01 11:35:59;;;;;;;14.53;6.80;;;;;;;19.87;70.45;151029.66;4925939;28;20229;-54
2023/10/01 11:38:26;;;;;;;14.00;6.43;;;;;;;20.00;69.11;151061.00;4926863;28;20293;-57
2023/10/01 11:41:06;;;;;;;14.57;6.33;;;;;;;20.10;68.84;151083.56;4929937;28;20229;-57
2023/10/01 11:43:38;;;;;;;14.30;7.47;;;;;;;20.07;69.56;151077.31;4915490;28;20241;-57
2023/10/01 11:46:19;;;;;;;14.43;6.47;;;;;;;20.10;68.17;151084.84;4929721;28;20252;-57
2023/10/01 11:49:06;;;;;;;15.80;6.17;;;;;;;20.26;67.55;151122.38;4927558;28;20240;-58
2023/10/01 11:51:42;;;;;;;16.43;6.53;;;;;;;20.28;67.95;151127.38;4927186;28;20241;-58
2023/10/01 11:54:10;;;;;;;14.37;6.20;;;;;;;20.48;68.20;151177.50;4929561;28;20260;-58
2023/10/01 11:56:38;;;;;;;12.37;6.03;;;;;;;20.55;67.70;151192.53;4926553;28;20239;-58
2023/10/01 11:59:08;;;;;;;17.10;7.10;;;;;;;20.56;65.65;151195.06;4929610;28;20264;-58
2023/10/01 12:01:45;;;;;;;17.43;6.80;;;;;;;20.57;66.96;151197.56;4926259;29;20242;-57